Time;durP1;ratioP1;P1;durP2;ratioP2;P2;SDS_P1;SDS_P2;PMS_P1;PMS_P2;Temp;Humidity;BMP_temperature;BMP_pressure;BME280_temperature;BME280_humidity;BME280_pressure;Samples;Min_cycle;Max_cycle;Signal;HPM_P1;HPM_P2
2024/04/21 00:01:12;;;;;;;0.95;0.80;;;;;;;2.98;100.00;101698.53;6823127;26;20062;-78
2024/04/21 00:04:13;;;;;;;0.73;0.70;;;;;;;2.93;100.00;101702.91;6822867;26;19998;-79
2024/04/21 00:07:16;;;;;;;1.38;0.80;;;;;;;2.85;100.00;101697.75;6822457;26;20358;-79
2024/04/21 00:10:19;;;;;;;1.73;0.88;;;;;;;2.94;100.00;101707.22;6821977;26;20257;-78
2024/04/21 00:13:22;;;;;;;4.05;0.40;;;;;;;3.05;100.00;101705.41;6822550;26;19998;-79
2024/04/21 00:16:23;;;;;;;3.53;1.50;;;;;;;2.96;100.00;101698.56;6822535;26;19993;-79
2024/04/21 00:19:26;;;;;;;1.80;0.63;;;;;;;3.09;100.00;101701.03;6792374;26;20053;-79
2024/04/21 00:22:26;;;;;;;1.90;0.85;;;;;;;3.13;100.00;101706.19;6777273;26;19995;-79
2024/04/21 00:25:32;;;;;;;6.38;0.60;;;;;;;3.20;100.00;101699.25;6777759;26;19990;-79
2024/04/21 00:28:32;;;;;;;1.10;0.77;;;;;;;3.36;100.00;101705.16;6793682;26;20040;-79
2024/04/21 00:31:35;;;;;;;0.95;0.75;;;;;;;3.35;100.00;101709.50;6798049;26;20013;-78
2024/04/21 00:34:35;;;;;;;4.47;1.05;;;;;;;3.48;100.00;101715.47;6776287;26;20415;-79
2024/04/21 00:37:38;;;;;;;1.67;0.82;;;;;;;3.55;100.00;101706.75;6795807;26;20003;-78
2024/04/21 00:40:44;;;;;;;4.47;1.65;;;;;;;3.24;100.00;101704.41;6794019;26;20333;-79
2024/04/21 00:43:44;;;;;;;3.83;1.23;;;;;;;3.14;100.00;101697.56;6807211;26;19994;-78
2024/04/21 00:46:48;;;;;;;3.80;1.23;;;;;;;3.16;100.00;101702.72;6822058;26;20054;-78
2024/04/21 00:49:48;;;;;;;5.47;1.35;;;;;;;3.17;100.00;101712.25;6817424;26;20002;-78
2024/04/21 00:52:51;;;;;;;2.33;0.95;;;;;;;3.26;100.00;101705.25;6806728;26;19994;-78
2024/04/21 00:55:56;;;;;;;2.97;0.95;;;;;;;3.28;100.00;101700.91;6821630;26;20405;-78
2024/04/21 00:59:01;;;;;;;1.55;0.82;;;;;;;3.22;100.00;101703.53;6821613;26;20054;-78
2024/04/21 01:02:04;;;;;;;1.40;0.68;;;;;;;3.15;100.00;101693.22;6821511;26;19994;-79
2024/04/21 01:05:04;;;;;;;3.17;0.88;;;;;;;3.23;100.00;101701.81;6816203;26;19997;-78
2024/04/21 01:08:08;;;;;;;0.98;0.80;;;;;;;3.29;100.00;101701.78;6800779;26;20006;-78
2024/04/21 01:11:17;;;;;;;2.92;1.20;;;;;;;3.48;100.00;101705.94;6821489;26;19990;-79
2024/04/21 01:14:20;;;;;;;1.00;0.60;;;;;;;3.54;100.00;101705.00;6821643;26;19994;-79
2024/04/21 01:17:21;;;;;;;5.95;1.05;;;;;;;3.62;100.00;101708.41;6821532;26;20009;-80
2024/04/21 01:20:24;;;;;;;2.53;1.05;;;;;;;3.75;100.00;101703.97;6821427;26;20195;-78
2024/04/21 01:23:30;;;;;;;2.33;1.08;;;;;;;3.77;100.00;101708.28;6819871;26;19990;-78
2024/04/21 01:26:30;;;;;;;1.55;1.05;;;;;;;3.80;100.00;101704.78;6821424;26;19989;-79
2024/04/21 01:29:33;;;;;;;1.10;1.00;;;;;;;3.85;100.00;101709.94;6820344;26;20067;-79
2024/04/21 01:32:34;;;;;;;5.32;1.35;;;;;;;4.00;100.00;101713.25;6792171;26;19998;-79
2024/04/21 01:35:37;;;;;;;1.65;1.00;;;;;;;4.04;100.00;101708.84;6821564;26;20008;-79
2024/04/21 01:38:42;;;;;;;2.72;1.05;;;;;;;4.05;100.00;101708.00;6821399;26;19995;-79
2024/04/21 01:41:43;;;;;;;2.67;1.10;;;;;;;4.10;100.00;101707.94;6821626;26;19994;-79
2024/04/21 01:44:46;;;;;;;5.03;1.13;;;;;;;4.10;100.00;101708.81;6821344;26;20030;-78
2024/04/21 01:47:49;;;;;;;2.45;1.10;;;;;;;4.19;100.00;101707.84;6805709;26;20007;-80
2024/04/21 01:50:49;;;;;;;2.83;1.15;;;;;;;4.12;100.00;101703.56;6787508;26;19998;-81
2024/04/21 01:53:55;;;;;;;2.95;0.82;;;;;;;4.05;100.00;101697.59;6792630;26;20016;-78
2024/04/21 01:56:55;;;;;;;0.80;0.80;;;;;;;4.10;100.00;101695.78;6801893;26;20058;-79
2024/04/21 01:59:58;;;;;;;6.80;0.88;;;;;;;4.08;100.00;101698.41;6812265;26;19998;-79
2024/04/21 02:03:01;;;;;;;0.75;0.70;;;;;;;4.07;100.00;101696.69;6820716;26;20001;-78
2024/04/21 02:06:05;;;;;;;1.10;0.88;;;;;;;4.11;100.00;101699.25;6820723;26;19997;-78
2024/04/21 02:09:10;;;;;;;6.20;1.00;;;;;;;4.10;100.00;101707.94;6821029;26;20004;-78
2024/04/21 02:12:11;;;;;;;3.15;1.05;;;;;;;4.15;100.00;101703.53;6820479;26;20004;-80
2024/04/21 02:15:14;;;;;;;0.90;0.80;;;;;;;4.04;100.00;101701.94;6787074;26;20034;-78
2024/04/21 02:18:14;;;;;;;5.40;1.30;;;;;;;3.96;100.00;101703.75;6775321;26;19991;-80
2024/04/21 02:21:17;;;;;;;0.47;0.47;;;;;;;3.96;100.00;101701.16;6774994;26;20002;-78
2024/04/21 02:24:23;;;;;;;5.55;1.52;;;;;;;3.98;100.00;101709.78;6787530;26;20054;-78
2024/04/21 02:27:26;;;;;;;2.65;0.70;;;;;;;3.94;100.00;101699.44;6821641;26;20025;-79
2024/04/21 02:30:26;;;;;;;1.75;0.80;;;;;;;3.92;100.00;101712.47;6785768;26;20263;-78
2024/04/21 02:33:29;;;;;;;0.57;0.57;;;;;;;3.99;100.00;101727.09;6776609;26;20010;-79
2024/04/21 02:36:30;;;;;;;3.63;0.73;;;;;;;3.96;100.00;101721.94;6776748;26;19997;-79
2024/04/21 02:39:35;;;;;;;3.65;0.73;;;;;;;4.02;100.00;101726.22;6776348;26;20302;-78
2024/04/21 02:42:35;;;;;;;2.97;0.65;;;;;;;4.01;100.00;101724.50;6774923;26;20271;-81
2024/04/21 02:45:38;;;;;;;1.10;0.60;;;;;;;3.95;100.00;101725.44;6775831;26;20052;-78
2024/04/21 02:48:41;;;;;;;0.98;0.60;;;;;;;3.92;100.00;101730.66;6774579;26;20055;-79
2024/04/21 02:51:42;;;;;;;3.25;1.02;;;;;;;3.95;100.00;101730.63;6774620;26;20001;-78
2024/04/21 02:54:47;;;;;;;1.23;0.40;;;;;;;3.95;100.00;101737.56;6777472;26;20003;-79
2024/04/21 02:57:48;;;;;;;2.22;0.85;;;;;;;3.90;100.00;101734.13;6804283;26;20030;-80
2024/04/21 03:00:51;;;;;;;0.80;0.50;;;;;;;3.98;100.00;101735.78;6819837;26;20011;-79
2024/04/21 03:03:51;;;;;;;0.82;0.60;;;;;;;3.94;100.00;101744.50;6811793;26;19998;-80
2024/04/21 03:06:54;;;;;;;0.45;0.45;;;;;;;3.94;100.00;101744.50;6819090;26;19998;-79
2024/04/21 03:09:57;;;;;;;1.95;0.75;;;;;;;3.89;100.00;101741.09;6819294;26;19994;-80
2024/04/21 03:13:00;;;;;;;2.60;0.70;;;;;;;3.90;100.00;101752.34;6818829;26;19998;-79
2024/04/21 03:16:01;;;;;;;1.80;0.60;;;;;;;3.87;100.00;101760.19;6819075;26;20259;-79
2024/04/21 03:19:04;;;;;;;2.55;0.50;;;;;;;3.85;100.00;101757.59;6818732;26;19998;-78
2024/04/21 03:22:05;;;;;;;0.88;0.57;;;;;;;3.90;100.00;101754.94;6818474;26;19994;-78
2024/04/21 03:25:11;;;;;;;1.88;0.75;;;;;;;3.95;100.00;101755.75;6818918;26;20029;-79
2024/04/21 03:28:11;;;;;;;3.13;0.80;;;;;;;3.93;100.00;101766.19;6818459;26;20007;-79
2024/04/21 03:31:14;;;;;;;1.42;1.00;;;;;;;3.93;100.00;101765.31;6818613;26;20009;-79
2024/04/21 03:34:15;;;;;;;1.27;0.73;;;;;;;3.98;100.00;101772.19;6818905;26;19986;-79
2024/04/21 03:37:19;;;;;;;1.42;0.73;;;;;;;4.00;100.00;101786.06;6818550;26;20419;-79
2024/04/21 03:40:24;;;;;;;1.13;0.90;;;;;;;3.93;100.00;101786.13;6818461;26;20005;-80
2024/04/21 03:43:28;;;;;;;2.05;0.88;;;;;;;3.77;100.00;101785.38;6818059;26;19998;-79
2024/04/21 03:46:31;;;;;;;2.35;1.30;;;;;;;3.78;100.00;101788.00;6807424;26;19999;-78
2024/04/21 03:49:32;;;;;;;2.10;1.27;;;;;;;3.87;100.00;101797.44;6790360;26;20302;-79
2024/04/21 03:52:35;;;;;;;2.78;1.02;;;;;;;3.84;100.00;101797.47;6818025;26;20069;-79
2024/04/21 03:55:38;;;;;;;2.60;1.48;;;;;;;3.89;100.00;101793.09;6793414;26;19998;-80
2024/04/21 03:58:41;;;;;;;2.33;1.45;;;;;;;3.84;100.00;101807.88;6813724;21;20007;-79
2024/04/21 04:01:46;;;;;;;2.65;1.60;;;;;;;3.86;100.00;101797.44;6759777;26;20000;-79
2024/04/21 04:04:46;;;;;;;3.65;1.60;;;;;;;3.95;100.00;101800.84;6748807;26;20014;-79
2024/04/21 04:07:49;;;;;;;1.60;1.50;;;;;;;3.90;100.00;101799.16;6750592;26;20071;-80
2024/04/21 04:10:52;;;;;;;5.30;1.90;;;;;;;3.90;100.00;101805.19;6765234;26;19995;-79
2024/04/21 04:13:55;;;;;;;3.25;1.85;;;;;;;3.91;100.00;101816.50;6755572;26;20003;-79
2024/04/21 04:16:56;;;;;;;3.85;2.17;;;;;;;3.93;100.00;101818.19;6746610;26;20059;-79
2024/04/21 04:19:59;;;;;;;3.67;2.10;;;;;;;3.90;100.00;101826.00;6752852;26;20031;-78
2024/04/21 04:22:59;;;;;;;6.38;2.25;;;;;;;3.85;100.00;101838.19;6742234;26;19999;-79
2024/04/21 04:26:05;;;;;;;3.70;2.05;;;;;;;3.81;100.00;101833.88;6732505;26;20321;-79
2024/04/21 04:29:06;;;;;;;4.20;1.88;;;;;;;3.85;100.00;101834.72;6732128;26;19996;-79
2024/04/21 04:32:08;;;;;;;3.00;2.20;;;;;;;3.79;100.00;101841.69;6732218;26;20060;-78
2024/04/21 04:35:09;;;;;;;3.95;1.70;;;;;;;3.91;100.00;101845.09;6732202;26;20060;-80
2024/04/21 04:38:12;;;;;;;2.78;1.95;;;;;;;3.91;100.00;101847.69;6732363;26;19996;-79
2024/04/21 04:41:18;;;;;;;3.67;2.42;;;;;;;4.07;100.00;101850.13;6757276;26;19991;-80
2024/04/21 04:44:18;;;;;;;4.20;2.60;;;;;;;4.04;100.00;101862.28;6776685;26;20051;-79
2024/04/21 04:47:21;;;;;;;4.47;2.35;;;;;;;4.04;100.00;101858.00;6776672;26;20335;-79
2024/04/21 04:50:21;;;;;;;3.78;2.42;;;;;;;4.05;100.00;101857.09;6776582;26;20367;-79
2024/04/21 04:53:24;;;;;;;3.97;2.60;;;;;;;4.03;100.00;101863.19;6776315;26;20060;-79
2024/04/21 04:56:27;;;;;;;3.90;2.30;;;;;;;3.99;100.00;101867.53;6775413;26;19995;-80
2024/04/21 04:59:30;;;;;;;4.13;2.72;;;;;;;4.04;100.00;101871.00;6776310;26;19995;-79
2024/04/21 05:02:31;;;;;;;3.72;2.25;;;;;;;4.06;100.00;101873.56;6775967;26;20255;-79
2024/04/21 05:05:34;;;;;;;4.53;2.50;;;;;;;4.09;100.00;101883.97;6761602;26;20064;-79
2024/04/21 05:08:34;;;;;;;4.78;2.50;;;;;;;4.12;100.00;101881.31;6775955;26;19991;-79
2024/04/21 05:11:40;;;;;;;6.38;2.50;;;;;;;4.20;100.00;101876.06;6776065;26;20059;-79
2024/04/21 05:14:42;;;;;;;10.80;5.50;;;;;;;4.19;100.00;101884.75;6774303;26;20067;-79
2024/04/21 05:17:45;;;;;;;8.32;4.22;;;;;;;4.26;100.00;101896.81;6763621;26;20017;-79
2024/04/21 05:20:45;;;;;;;4.97;3.20;;;;;;;4.27;100.00;101894.22;6776297;26;20055;-80
2024/04/21 05:23:48;;;;;;;7.78;2.45;;;;;;;4.36;100.00;101897.56;6775247;26;20035;-79
2024/04/21 05:26:54;;;;;;;4.78;3.40;;;;;;;4.32;100.00;101907.19;6775859;26;20055;-79
2024/04/21 05:29:56;;;;;;;6.72;2.63;;;;;;;4.41;100.00;101909.69;6775644;26;20059;-79
2024/04/21 05:32:59;;;;;;;6.05;3.25;;;;;;;4.36;100.00;101915.78;6775681;26;20007;-79
2024/04/21 05:35:59;;;;;;;6.00;3.17;;;;;;;4.27;100.00;101920.22;6775643;26;19994;-80
2024/04/21 05:39:02;;;;;;;4.95;2.60;;;;;;;4.35;100.00;101914.06;6775771;26;20063;-80
2024/04/21 05:42:05;;;;;;;3.97;2.83;;;;;;;4.38;100.00;101917.53;6775634;26;20055;-79
2024/04/21 05:45:09;;;;;;;3.97;2.65;;;;;;;4.28;100.00;101919.34;6775816;26;20367;-80
2024/04/21 05:48:09;;;;;;;7.10;3.33;;;;;;;4.39;100.00;101921.84;6775763;26;20363;-80
2024/04/21 05:51:12;;;;;;;5.53;2.88;;;;;;;4.37;100.00;101927.94;6775336;26;20067;-80
2024/04/21 05:54:13;;;;;;;4.93;2.88;;;;;;;4.41;100.00;101921.84;6775835;26;19999;-81
2024/04/21 05:57:18;;;;;;;4.45;3.03;;;;;;;4.43;100.00;101933.09;6775634;26;20057;-81
2024/04/21 06:00:21;;;;;;;3.92;2.33;;;;;;;4.36;100.00;101928.81;6775137;26;20044;-80
2024/04/21 06:03:22;;;;;;;3.72;2.42;;;;;;;4.40;100.00;101930.50;6775066;26;20375;-80
2024/04/21 06:06:25;;;;;;;5.30;2.42;;;;;;;4.43;100.00;101938.31;6775258;26;20042;-80
2024/04/21 06:09:25;;;;;;;5.38;2.90;;;;;;;4.47;100.00;101932.19;6774071;26;19994;-80
2024/04/21 06:12:31;;;;;;;4.80;2.83;;;;;;;4.51;100.00;101936.50;6774937;26;20416;-82
2024/04/21 06:15:31;;;;;;;4.95;2.58;;;;;;;4.56;100.00;101942.53;6774898;26;19995;-81
2024/04/21 06:18:34;;;;;;;5.43;3.08;;;;;;;4.64;100.00;101955.47;6774912;26;20022;-80
2024/04/21 06:21:37;;;;;;;5.43;2.80;;;;;;;4.66;100.00;101964.13;6774709;26;20363;-81
2024/04/21 06:24:38;;;;;;;4.75;2.45;;;;;;;4.74;100.00;101957.97;6775101;26;19995;-80
2024/04/21 06:27:44;;;;;;;4.10;2.15;;;;;;;4.80;100.00;101967.44;6774614;26;20083;-80
2024/04/21 06:30:44;;;;;;;4.72;3.65;;;;;;;4.75;100.00;101972.72;6775093;26;19995;-81
2024/04/21 06:33:47;;;;;;;5.82;3.03;;;;;;;4.72;100.00;101972.72;6762234;26;20584;-81
2024/04/21 06:36:50;;;;;;;4.82;2.50;;;;;;;4.66;100.00;101975.41;6759309;26;19998;-81
2024/04/21 06:39:50;;;;;;;5.78;2.95;;;;;;;4.77;100.00;101975.31;6763668;26;20255;-81
2024/04/21 06:42:56;;;;;;;6.40;3.10;;;;;;;4.81;100.00;101972.66;6774232;26;20081;-81
2024/04/21 06:45:59;;;;;;;7.97;2.33;;;;;;;4.90;100.00;101984.72;6774257;26;19999;-82
2024/04/21 06:49:00;;;;;;;5.65;2.80;;;;;;;4.94;100.00;101978.59;6774315;26;19987;-80
2024/04/21 06:52:03;;;;;;;5.60;2.70;;;;;;;5.01;100.00;101988.09;6774143;26;20280;-81
2024/04/21 06:55:04;;;;;;;3.97;2.55;;;;;;;5.06;100.00;101988.91;6766715;26;20256;-81
2024/04/21 06:58:09;;;;;;;5.05;2.85;;;;;;;5.12;100.00;101992.31;6751367;26;20398;-81
2024/04/21 07:01:12;;;;;;;4.63;2.42;;;;;;;5.22;100.00;101992.22;6760533;26;20080;-80
2024/04/21 07:04:13;;;;;;;4.07;2.53;;;;;;;5.31;100.00;101997.31;6768754;26;20059;-80
2024/04/21 07:07:17;;;;;;;3.40;2.00;;;;;;;5.30;100.00;102000.78;6773818;26;20346;-80
2024/04/21 07:10:18;;;;;;;4.90;2.80;;;;;;;5.45;100.00;102004.97;6760522;26;20006;-80
2024/04/21 07:13:23;;;;;;;5.68;2.67;;;;;;;5.53;100.00;102004.88;6764583;26;20236;-78
2024/04/21 07:16:24;;;;;;;2.92;2.03;;;;;;;5.46;100.00;102005.84;6757830;26;20007;-80
2024/04/21 07:19:27;;;;;;;5.13;2.72;;;;;;;5.53;100.00;102015.28;6758410;26;20325;-80
2024/04/21 07:22:27;;;;;;;3.50;2.30;;;;;;;5.64;100.00;102010.81;6769707;26;19994;-80
2024/04/21 07:25:30;;;;;;;4.78;2.50;;;;;;;5.69;100.00;102022.06;6778066;26;20031;-80
2024/04/21 07:28:33;;;;;;;3.72;2.20;;;;;;;5.76;100.00;102023.69;6778001;26;19998;-80
2024/04/21 07:31:36;;;;;;;4.85;2.47;;;;;;;5.78;100.00;102034.13;6763001;26;20263;-81
2024/04/21 07:34:36;;;;;;;5.55;2.33;;;;;;;5.83;100.00;102034.94;6733416;26;19992;-81
2024/04/21 07:37:39;;;;;;;7.05;2.72;;;;;;;5.89;100.00;102026.16;6732990;26;20069;-80
2024/04/21 07:40:42;;;;;;;4.28;2.50;;;;;;;5.95;100.00;102033.91;6732850;26;20000;-79
2024/04/21 07:43:45;;;;;;;4.57;2.42;;;;;;;6.02;100.00;102031.22;6772663;26;20095;-80
2024/04/21 07:46:48;;;;;;;4.97;2.10;;;;;;;6.06;100.00;102038.13;6762583;26;19998;-80
2024/04/21 07:49:51;;;;;;;2.90;1.75;;;;;;;6.13;100.00;102046.72;6772698;26;20314;-81
2024/04/21 07:52:52;;;;;;;5.03;2.28;;;;;;;6.26;100.00;102040.44;6762219;26;20003;-79
2024/04/21 07:55:55;;;;;;;3.38;2.22;;;;;;;6.37;100.00;102048.13;6768427;26;20026;-80
2024/04/21 07:58:58;;;;;;;3.35;1.85;;;;;;;6.43;100.00;102044.56;6772776;26;20066;-78
2024/04/21 08:02:01;;;;;;;5.40;2.45;;;;;;;6.36;100.00;102046.41;6759409;26;19991;-80
2024/04/21 08:05:01;;;;;;;3.80;2.05;;;;;;;6.36;100.00;102056.84;6768157;26;19995;-80
2024/04/21 08:08:05;;;;;;;6.75;2.30;;;;;;;6.46;100.00;102057.56;6755264;26;20322;-80
2024/04/21 08:11:05;;;;;;;7.05;1.90;;;;;;;6.51;100.00;102059.22;6732092;26;20057;-78
2024/04/21 08:14:11;;;;;;;2.00;1.35;;;;;;;6.55;100.00;102062.66;6765208;26;20383;-80
2024/04/21 08:17:11;;;;;;;2.75;1.42;;;;;;;6.58;100.00;102059.97;6772919;26;19998;-79
2024/04/21 08:20:14;;;;;;;2.53;1.85;;;;;;;6.65;100.00;102058.16;6761697;26;20007;-78
2024/04/21 08:23:16;;;;;;;3.33;1.60;;;;;;;6.60;100.00;102060.81;6761645;26;19999;-80
2024/04/21 08:26:19;;;;;;;3.53;1.50;;;;;;;6.67;100.00;102070.28;6777055;26;20003;-80
2024/04/21 08:29:22;;;;;;;3.35;1.80;;;;;;;6.76;100.00;102069.25;6773474;26;19995;-80
2024/04/21 08:32:25;;;;;;;2.60;1.20;;;;;;;6.90;100.00;102067.28;6776056;26;20047;-80
2024/04/21 08:35:28;;;;;;;3.05;1.50;;;;;;;6.90;100.00;102071.66;6764461;26;20063;-78
2024/04/21 08:38:29;;;;;;;5.22;1.63;;;;;;;6.85;100.00;102076.94;6774986;26;20048;-78
2024/04/21 08:41:40;;;;;;;1.52;1.10;;;;;;;6.84;99.09;102073.47;6776452;26;20010;-80
2024/04/21 08:44:44;;;;;;;2.90;1.30;;;;;;;6.82;98.24;102082.25;6776546;26;19995;-79
2024/04/21 08:47:47;;;;;;;3.10;1.27;;;;;;;6.80;98.58;102089.22;6776380;26;20010;-80
2024/04/21 08:50:48;;;;;;;2.03;1.38;;;;;;;6.76;97.56;102084.94;6776518;26;19990;-80
2024/04/21 08:53:52;;;;;;;2.95;1.17;;;;;;;6.81;100.00;102094.47;6762921;26;20390;-80
2024/04/21 08:56:56;;;;;;;2.20;1.40;;;;;;;6.98;97.26;102096.78;6758995;26;20071;-80
2024/04/21 09:00:01;;;;;;;2.95;1.00;;;;;;;7.26;95.08;102093.69;6745209;26;20049;-80
2024/04/21 09:03:04;;;;;;;2.55;1.50;;;;;;;7.27;96.26;102096.28;6741302;26;20014;-80
2024/04/21 09:06:08;;;;;;;1.83;1.30;;;;;;;7.67;85.94;102089.41;6775932;26;19995;-79
2024/04/21 09:09:11;;;;;;;1.77;1.17;;;;;;;7.84;87.39;102095.19;6776078;26;20444;-80
2024/04/21 09:12:15;;;;;;;3.33;1.08;;;;;;;7.88;81.77;102100.31;6776064;26;20263;-80
2024/04/21 09:15:18;;;;;;;1.70;0.93;;;;;;;7.75;82.14;102093.63;6776323;26;20006;-79
2024/04/21 09:18:21;;;;;;;3.13;1.00;;;;;;;7.54;77.54;102102.75;6775857;26;19995;-80
2024/04/21 09:21:24;;;;;;;2.03;1.13;;;;;;;7.53;80.82;102101.00;6764166;26;20339;-80
2024/04/21 09:24:26;;;;;;;1.70;0.95;;;;;;;7.57;77.74;102105.31;6731857;26;20402;-79
2024/04/21 09:27:30;;;;;;;3.30;1.23;;;;;;;7.77;80.08;102099.69;6731096;26;20262;-80
2024/04/21 09:30:35;;;;;;;2.08;1.10;;;;;;;7.99;82.69;102104.47;6731639;26;19996;-79
2024/04/21 09:33:38;;;;;;;3.00;0.93;;;;;;;8.09;74.84;102112.13;6730987;26;20440;-79
2024/04/21 09:36:39;;;;;;;1.58;0.88;;;;;;;8.03;80.25;102111.38;6731344;26;19995;-79
2024/04/21 09:39:42;;;;;;;2.10;0.85;;;;;;;7.89;70.80;102109.91;6730979;26;20313;-80
2024/04/21 09:42:44;;;;;;;1.52;0.95;;;;;;;7.77;72.72;102109.31;6730439;26;19995;-79
2024/04/21 09:45:51;;;;;;;1.48;1.00;;;;;;;7.60;69.49;102117.47;6729856;26;20052;-80
2024/04/21 09:48:53;;;;;;;1.42;0.90;;;;;;;7.51;72.29;102115.88;6731001;26;19996;-79
2024/04/21 09:51:58;;;;;;;1.13;0.90;;;;;;;7.42;72.50;102115.19;6730792;26;20049;-79
2024/04/21 09:55:00;;;;;;;1.67;1.08;;;;;;;7.40;70.08;102109.97;6765788;26;20382;-80
2024/04/21 09:58:05;;;;;;;1.33;1.10;;;;;;;7.46;71.35;102114.25;6769265;26;20064;-79
2024/04/21 10:01:15;;;;;;;1.48;1.00;;;;;;;7.65;77.49;102113.00;6754288;26;20349;-79
2024/04/21 10:04:21;;;;;;;4.75;0.90;;;;;;;7.94;68.31;102109.81;6755608;26;20004;-79
2024/04/21 10:07:24;;;;;;;1.88;0.82;;;;;;;8.20;66.78;102119.75;6742960;26;20611;-74
2024/04/21 10:10:27;;;;;;;1.77;1.02;;;;;;;8.39;63.75;102117.63;6775216;26;20009;-74
2024/04/21 10:13:31;;;;;;;1.02;0.70;;;;;;;8.48;65.83;102113.94;6773116;26;20067;-75
2024/04/21 10:16:39;;;;;;;1.77;0.98;;;;;;;8.68;64.61;102116.09;6744069;26;20014;-75
2024/04/21 10:19:43;;;;;;;3.78;0.88;;;;;;;8.99;69.63;102114.44;6765015;26;20600;-75
2024/04/21 10:22:44;;;;;;;2.03;0.93;;;;;;;9.21;62.32;102122.63;6759572;26;20007;-76
2024/04/21 10:25:48;;;;;;;1.17;0.85;;;;;;;9.30;57.07;102122.41;6774732;26;20282;-74
2024/04/21 10:28:49;;;;;;;0.65;0.60;;;;;;;9.15;58.90;102131.53;6759601;26;20012;-75
2024/04/21 10:31:54;;;;;;;0.82;0.70;;;;;;;8.95;56.10;102120.69;6774427;26;20010;-75
2024/04/21 10:34:56;;;;;;;2.15;1.00;;;;;;;8.97;57.54;102131.97;6775132;26;20392;-75
2024/04/21 10:37:59;;;;;;;3.45;0.95;;;;;;;8.95;56.75;102127.66;6774584;26;19998;-75
2024/04/21 10:40:59;;;;;;;2.30;1.00;;;;;;;8.94;54.53;102126.81;6774666;26;19991;-75
2024/04/21 10:44:02;;;;;;;3.03;1.10;;;;;;;9.09;54.42;102122.97;6774128;26;20290;-75
2024/04/21 10:47:05;;;;;;;0.80;0.70;;;;;;;9.21;55.22;102122.63;6759205;26;20007;-75
2024/04/21 10:50:09;;;;;;;1.95;1.02;;;;;;;9.35;53.77;102127.53;6774221;26;20031;-75
2024/04/21 10:53:09;;;;;;;1.00;0.75;;;;;;;9.23;53.29;102131.34;6765724;26;20014;-74
2024/04/21 10:56:12;;;;;;;3.95;0.93;;;;;;;9.14;53.93;102131.56;6769957;26;19995;-75
2024/04/21 10:59:13;;;;;;;1.95;0.88;;;;;;;9.17;52.15;102134.09;6773767;26;20312;-75
2024/04/21 11:02:19;;;;;;;4.25;0.80;;;;;;;9.01;49.02;102138.88;6754586;26;20003;-75
2024/04/21 11:05:19;;;;;;;1.73;1.15;;;;;;;8.78;50.22;102128.94;6773338;26;20003;-75
2024/04/21 11:08:23;;;;;;;2.05;0.90;;;;;;;8.67;54.97;102127.47;6778078;26;19997;-75
2024/04/21 11:11:26;;;;;;;1.75;1.00;;;;;;;8.65;51.05;102135.38;6762902;26;20389;-75
2024/04/21 11:14:27;;;;;;;1.73;0.90;;;;;;;8.75;54.67;102141.25;6778215;26;20040;-75
2024/04/21 11:17:32;;;;;;;0.73;0.70;;;;;;;8.92;56.12;102136.47;6777961;26;19998;-75
2024/04/21 11:20:33;;;;;;;2.47;1.48;;;;;;;8.95;51.90;102135.53;6778325;26;19994;-74
2024/04/21 11:23:38;;;;;;;0.82;0.80;;;;;;;9.08;51.91;102132.59;6778166;26;19999;-75
2024/04/21 11:26:42;;;;;;;0.77;0.70;;;;;;;9.11;50.03;102135.13;6778428;26;20002;-74
2024/04/21 11:29:45;;;;;;;5.25;0.80;;;;;;;9.12;50.78;102136.84;6778178;26;20050;-75
2024/04/21 11:32:51;;;;;;;1.63;1.00;;;;;;;9.17;49.54;102141.09;6777720;26;20374;-75
2024/04/21 11:35:51;;;;;;;3.50;1.20;;;;;;;9.17;52.99;102151.59;6762301;26;20076;-75
2024/04/21 11:38:55;;;;;;;1.58;1.00;;;;;;;9.46;52.13;102143.88;6762551;26;20372;-75
2024/04/21 11:41:55;;;;;;;1.98;0.95;;;;;;;9.75;49.81;102147.47;6762431;26;20091;-75
2024/04/21 11:44:58;;;;;;;2.92;1.10;;;;;;;9.70;49.72;102150.22;6773078;26;19999;-75
2024/04/21 11:48:05;;;;;;;1.90;1.08;;;;;;;9.49;49.45;102143.75;6766715;26;19995;-75
2024/04/21 11:51:08;;;;;;;2.47;0.80;;;;;;;9.49;50.80;102142.91;6777655;26;20051;-75
2024/04/21 11:54:08;;;;;;;1.73;0.80;;;;;;;9.50;52.78;102142.03;6777404;26;19991;-76
2024/04/21 11:57:11;;;;;;;4.07;1.08;;;;;;;9.57;49.65;102146.19;6777724;26;20059;-75
2024/04/21 12:00:13;;;;;;;1.85;1.05;;;;;;;9.46;49.79;102145.63;6777330;26;19990;-75
2024/04/21 12:03:19;;;;;;;2.63;1.20;;;;;;;9.72;53.11;102148.44;6762006;26;19999;-75
2024/04/21 12:06:23;;;;;;;2.88;1.40;;;;;;;10.56;52.89;102151.25;6776313;26;20363;-75
2024/04/21 12:09:23;;;;;;;1.75;1.27;;;;;;;11.24;49.07;102151.72;6777176;26;20258;-75
2024/04/21 12:12:26;;;;;;;1.90;1.05;;;;;;;11.55;44.87;102144.50;6776198;26;20003;-75
2024/04/21 12:15:29;;;;;;;2.35;1.15;;;;;;;11.14;48.20;102156.44;6764691;26;20012;-74
2024/04/21 12:18:32;;;;;;;1.75;1.02;;;;;;;10.68;49.95;102155.28;6758369;26;20551;-72
2024/04/21 12:21:36;;;;;;;2.13;1.30;;;;;;;10.91;45.74;102144.03;6748694;26;20003;-75
2024/04/21 12:24:36;;;;;;;1.80;1.00;;;;;;;10.73;42.16;102149.88;6774057;26;20014;-74
2024/04/21 12:27:39;;;;;;;1.05;0.80;;;;;;;10.42;44.33;102150.81;6763369;26;19999;-75
2024/04/21 12:30:42;;;;;;;3.03;1.20;;;;;;;10.55;46.92;102149.53;6748389;26;20049;-74
2024/04/21 12:33:48;;;;;;;1.42;0.90;;;;;;;10.62;48.09;102148.44;6757723;26;19999;-75
2024/04/21 12:36:48;;;;;;;1.25;0.85;;;;;;;11.53;46.27;102130.50;6754438;26;20072;-75
2024/04/21 12:39:51;;;;;;;1.42;1.10;;;;;;;12.24;47.11;102139.38;6776494;26;20387;-75
2024/04/21 12:42:54;;;;;;;1.50;1.00;;;;;;;12.70;46.48;102140.22;6773318;26;20058;-75
2024/04/21 12:45:57;;;;;;;3.53;1.00;;;;;;;12.63;43.06;102139.63;6764941;26;20359;-74
2024/04/21 12:49:01;;;;;;;1.17;0.90;;;;;;;12.31;41.73;102140.00;6776354;26;20047;-74
2024/04/21 12:52:05;;;;;;;1.13;0.88;;;;;;;12.06;40.50;102129.53;6775896;26;20038;-74
2024/04/21 12:55:08;;;;;;;0.60;0.60;;;;;;;11.53;38.99;102130.50;6761150;26;20040;-75
2024/04/21 12:58:11;;;;;;;0.75;0.60;;;;;;;11.12;41.24;102124.91;6776291;26;20391;-74
2024/04/21 13:01:12;;;;;;;1.10;0.70;;;;;;;11.51;42.21;102132.34;6776044;26;19994;-74
2024/04/21 13:04:18;;;;;;;1.63;1.00;;;;;;;11.68;39.88;102137.03;6760568;26;20076;-75
2024/04/21 13:07:18;;;;;;;1.63;0.82;;;;;;;11.55;40.98;102135.75;6759024;26;20067;-75
2024/04/21 13:10:21;;;;;;;6.10;1.10;;;;;;;11.62;40.54;102134.59;6764841;26;20385;-74
2024/04/21 13:13:21;;;;;;;1.45;0.93;;;;;;;11.94;42.24;102133.47;6762935;26;20074;-74
2024/04/21 13:16:24;;;;;;;2.80;0.70;;;;;;;11.63;44.47;102125.81;6755247;26;20266;-74
2024/04/21 13:19:30;;;;;;;1.50;0.80;;;;;;;11.35;42.81;102141.69;6759545;26;19995;-69
2024/04/21 13:22:31;;;;;;;6.30;1.05;;;;;;;11.19;41.50;102141.34;6771616;26;20014;-75
2024/04/21 13:25:34;;;;;;;2.47;1.00;;;;;;;11.08;41.88;102144.34;6749949;26;20003;-75
2024/04/21 13:28:34;;;;;;;3.55;1.00;;;;;;;11.11;44.84;102146.00;6758394;26;19999;-75
2024/04/21 13:31:38;;;;;;;2.75;0.88;;;;;;;11.63;43.58;102141.59;6775495;26;20068;-75
2024/04/21 13:34:41;;;;;;;1.08;0.70;;;;;;;12.49;41.32;102138.41;6775907;26;20423;-75
2024/04/21 13:37:45;;;;;;;1.63;1.10;;;;;;;13.20;41.77;102140.78;6775574;26;19995;-70
2024/04/21 13:40:48;;;;;;;13.25;4.32;;;;;;;13.88;41.57;102130.81;6775600;26;20374;-75
2024/04/21 13:43:48;;;;;;;6.57;3.17;;;;;;;14.17;37.84;102137.44;6746569;26;20071;-76
2024/04/21 13:46:51;;;;;;;3.15;1.85;;;;;;;13.32;37.08;102141.25;6749106;26;20003;-75
2024/04/21 13:49:54;;;;;;;1.63;1.42;;;;;;;12.67;39.43;102135.94;6750208;26;19999;-75
2024/04/21 13:52:57;;;;;;;15.80;7.95;;;;;;;12.21;38.65;102142.13;6754538;26;20323;-75
2024/04/21 13:55:57;;;;;;;15.82;5.85;;;;;;;11.68;41.68;102144.94;6761862;26;20287;-75
2024/04/21 13:59:00;;;;;;;5.05;3.35;;;;;;;11.57;42.43;102142.66;6755169;26;20011;-74
2024/04/21 14:02:01;;;;;;;9.55;3.45;;;;;;;11.79;38.74;102142.75;6758827;26;20386;-75
2024/04/21 14:05:07;;;;;;;7.38;3.92;;;;;;;12.62;38.87;102140.53;6755489;26;19995;-75
2024/04/21 14:08:08;;;;;;;5.72;3.28;;;;;;;13.52;37.61;102137.75;6766444;26;20107;-75
2024/04/21 14:11:11;;;;;;;7.70;3.38;;;;;;;13.92;37.83;102134.19;6748439;26;20039;-75